Time;durP1;ratioP1;P1;durP2;ratioP2;P2;SDS_P1;SDS_P2;PMS_P1;PMS_P2;Temp;Humidity;BMP_temperature;BMP_pressure;BME280_temperature;BME280_humidity;BME280_pressure;Samples;Min_cycle;Max_cycle;Signal;HPM_P1;HPM_P2
2021/09/18 00:00:37;;;;;;;5.55;4.8;;;;;;;8.08;100;95199.95;;;;
2021/09/18 00:01:37;;;;;;;5.55;4.8;;;;;;;8.08;100;95199.95;;;;
2021/09/18 00:02:38;;;;;;;5.55;4.8;;;;;;;8.08;100;95199.95;;;;
2021/09/18 00:03:38;;;;;;;5.55;4.8;;;;;;;8.08;100;95199.95;;;;
2021/09/18 00:04:39;;;;;;;5.55;4.8;;;;;;;8.08;100;95199.95;;;;
2021/09/18 00:05:39;;;;;;;5.550001;5.05;;;;;;;7.95;100;95194.19;;;;
2021/09/18 00:06:40;;;;;;;5.550001;5.05;;;;;;;7.95;100;95194.19;;;;
2021/09/18 00:07:40;;;;;;;5.550001;5.05;;;;;;;7.95;100;95194.19;;;;
2021/09/18 00:08:41;;;;;;;5.550001;5.05;;;;;;;7.95;100;95194.19;;;;
2021/09/18 00:09:41;;;;;;;5.550001;5.05;;;;;;;7.95;100;95194.19;;;;
2021/09/18 00:10:42;;;;;;;5.550001;5.05;;;;;;;7.95;100;95194.19;;;;
2021/09/18 00:11:43;;;;;;;5.550001;5.05;;;;;;;7.95;100;95194.19;;;;
2021/09/18 00:12:43;;;;;;;5.550001;5.05;;;;;;;7.95;100;95194.19;;;;
2021/09/18 00:13:44;;;;;;;5.550001;5.05;;;;;;;7.95;100;95194.19;;;;
2021/09/18 00:14:44;;;;;;;5.550001;5.05;;;;;;;7.95;100;95194.19;;;;
2021/09/18 00:15:45;;;;;;;5.550001;5.05;;;;;;;7.95;100;95194.19;;;;
2021/09/18 00:16:45;;;;;;;8.400001;5.15;;;;;;;7.86;100;95200.34;;;;
2021/09/18 00:17:46;;;;;;;8.400001;5.15;;;;;;;7.86;100;95200.34;;;;
2021/09/18 00:18:47;;;;;;;8.400001;5.15;;;;;;;7.86;100;95200.34;;;;
2021/09/18 00:19:48;;;;;;;8.400001;5.15;;;;;;;7.86;100;95200.34;;;;
2021/09/18 00:20:48;;;;;;;8.400001;5.15;;;;;;;7.86;100;95200.34;;;;
2021/09/18 00:21:49;;;;;;;8.400001;5.15;;;;;;;7.86;100;95200.34;;;;
2021/09/18 00:22:49;;;;;;;8.400001;5.15;;;;;;;7.86;100;95200.34;;;;
2021/09/18 00:23:50;;;;;;;8.400001;5.15;;;;;;;7.86;100;95200.34;;;;
2021/09/18 00:24:50;;;;;;;8.400001;5.15;;;;;;;7.86;100;95200.34;;;;
2021/09/18 00:25:51;;;;;;;8.400001;5.15;;;;;;;7.86;100;95200.34;;;;
2021/09/18 00:26:51;;;;;;;8.400001;5.15;;;;;;;7.86;100;95200.34;;;;
2021/09/18 00:27:52;;;;;;;7.2;5.05;;;;;;;7.83;100;95207.09;;;;
2021/09/18 00:28:53;;;;;;;7.2;5.05;;;;;;;7.83;100;95207.09;;;;
2021/09/18 00:29:53;;;;;;;7.2;5.05;;;;;;;7.83;100;95207.09;;;;
2021/09/18 00:30:54;;;;;;;7.2;5.05;;;;;;;7.83;100;95207.09;;;;
2021/09/18 00:31:54;;;;;;;7.2;5.05;;;;;;;7.83;100;95207.09;;;;
2021/09/18 00:32:55;;;;;;;7.2;5.05;;;;;;;7.83;100;95207.09;;;;
2021/09/18 00:33:55;;;;;;;7.2;5.05;;;;;;;7.83;100;95207.09;;;;
2021/09/18 00:34:57;;;;;;;7.2;5.05;;;;;;;7.83;100;95207.09;;;;
2021/09/18 00:35:57;;;;;;;7.2;5.05;;;;;;;7.83;100;95207.09;;;;
2021/09/18 00:36:57;;;;;;;7.2;5.05;;;;;;;7.83;100;95207.09;;;;
2021/09/18 00:37:58;;;;;;;6.249999;5.65;;;;;;;7.82;100;95197.92;;;;
2021/09/18 00:38:58;;;;;;;6.249999;5.65;;;;;;;7.82;100;95197.92;;;;
2021/09/18 00:39:59;;;;;;;6.249999;5.65;;;;;;;7.82;100;95197.92;;;;
2021/09/18 00:40:59;;;;;;;6.249999;5.65;;;;;;;7.82;100;95197.92;;;;
2021/09/18 00:42:00;;;;;;;6.249999;5.65;;;;;;;7.82;100;95197.92;;;;
2021/09/18 00:43:00;;;;;;;6.249999;5.65;;;;;;;7.82;100;95197.92;;;;
2021/09/18 00:44:01;;;;;;;6.249999;5.65;;;;;;;7.82;100;95197.92;;;;
2021/09/18 00:45:01;;;;;;;6.249999;5.65;;;;;;;7.82;100;95197.92;;;;
2021/09/18 00:46:02;;;;;;;6.249999;5.65;;;;;;;7.82;100;95197.92;;;;
2021/09/18 00:47:03;;;;;;;6.249999;5.65;;;;;;;7.82;100;95197.92;;;;
2021/09/18 00:48:04;;;;;;;6.249999;5.65;;;;;;;7.82;100;95197.92;;;;
2021/09/18 00:49:05;;;;;;;5.400001;4.9;;;;;;;7.88;100;95202.42;;;;
2021/09/18 00:50:05;;;;;;;5.400001;4.9;;;;;;;7.88;100;95202.42;;;;
2021/09/18 00:51:07;;;;;;;5.400001;4.9;;;;;;;7.88;100;95202.42;;;;
2021/09/18 00:52:07;;;;;;;5.400001;4.9;;;;;;;7.88;100;95202.42;;;;
2021/09/18 00:53:08;;;;;;;5.400001;4.9;;;;;;;7.88;100;95202.42;;;;
2021/09/18 00:54:09;;;;;;;5.400001;4.9;;;;;;;7.88;100;95202.42;;;;
2021/09/18 00:55:12;;;;;;;5.400001;4.9;;;;;;;7.88;100;95202.42;;;;
2021/09/18 00:56:13;;;;;;;5.400001;4.9;;;;;;;7.88;100;95202.42;;;;
2021/09/18 00:57:16;;;;;;;5.400001;4.9;;;;;;;7.88;100;95202.42;;;;
2021/09/18 00:58:17;;;;;;;5.400001;4.9;;;;;;;7.88;100;95202.42;;;;
2021/09/18 00:59:18;;;;;;;6.15;5;;;;;;;7.8;100;95201.34;;;;
2021/09/18 01:00:18;;;;;;;6.15;5;;;;;;;7.8;100;95201.34;;;;
2021/09/18 01:01:19;;;;;;;6.15;5;;;;;;;7.8;100;95201.34;;;;
2021/09/18 01:02:19;;;;;;;6.15;5;;;;;;;7.8;100;95201.34;;;;
2021/09/18 01:03:20;;;;;;;6.15;5;;;;;;;7.8;100;95201.34;;;;
2021/09/18 01:04:21;;;;;;;6.15;5;;;;;;;7.8;100;95201.34;;;;
2021/09/18 01:05:22;;;;;;;6.15;5;;;;;;;7.8;100;95201.34;;;;
2021/09/18 01:06:22;;;;;;;6.15;5;;;;;;;7.8;100;95201.34;;;;
2021/09/18 01:07:23;;;;;;;6.15;5;;;;;;;7.8;100;95201.34;;;;
2021/09/18 01:08:24;;;;;;;6.15;5;;;;;;;7.8;100;95201.34;;;;
2021/09/18 01:09:27;;;;;;;6.15;5;;;;;;;7.8;100;95201.34;;;;
2021/09/18 01:10:30;;;;;;;6.15;5;;;;;;;7.8;100;95201.34;;;;
2021/09/18 01:11:30;;;;;;;6.15;5;;;;;;;7.8;100;95201.34;;;;
2021/09/18 01:12:31;;;;;;;6.15;5;;;;;;;7.8;100;95201.34;;;;
2021/09/18 01:13:32;;;;;;;6.15;5;;;;;;;7.8;100;95201.34;;;;
2021/09/18 01:14:33;;;;;;;6.15;5;;;;;;;7.8;100;95201.34;;;;
2021/09/18 01:15:34;;;;;;;6.15;5;;;;;;;7.8;100;95201.34;;;;
2021/09/18 01:16:37;;;;;;;6.15;5;;;;;;;7.8;100;95201.34;;;;
2021/09/18 01:17:37;;;;;;;6.15;5;;;;;;;7.8;100;95201.34;;;;
2021/09/18 01:18:38;;;;;;;6.15;5;;;;;;;7.8;100;95201.34;;;;
2021/09/18 01:19:38;;;;;;;6.15;5;;;;;;;7.8;100;95201.34;;;;
2021/09/18 01:20:39;;;;;;;6.15;5;;;;;;;7.8;100;95201.34;;;;
2021/09/18 01:21:41;;;;;;;6.15;5;;;;;;;7.8;100;95201.34;;;;
2021/09/18 01:22:46;;;;;;;6.15;5;;;;;;;7.8;100;95201.34;;;;
2021/09/18 01:23:48;;;;;;;6.15;5;;;;;;;7.8;100;95201.34;;;;
2021/09/18 01:24:48;;;;;;;6.15;5;;;;;;;7.8;100;95201.34;;;;
2021/09/18 01:25:49;;;;;;;6.15;5;;;;;;;7.8;100;95201.34;;;;
2021/09/18 01:26:50;;;;;;;6.15;5;;;;;;;7.8;100;95201.34;;;;
2021/09/18 01:27:50;;;;;;;6.15;5;;;;;;;7.8;100;95201.34;;;;
2021/09/18 01:28:51;;;;;;;6.15;5;;;;;;;7.8;100;95201.34;;;;
2021/09/18 01:29:52;;;;;;;6.15;5;;;;;;;7.8;100;95201.34;;;;
2021/09/18 01:30:52;;;;;;;6.15;5;;;;;;;7.8;100;95201.34;;;;
2021/09/18 01:31:53;;;;;;;5.450001;4.950001;;;;;;;7.43;100;95197.72;;;;
2021/09/18 01:32:54;;;;;;;5.450001;4.950001;;;;;;;7.43;100;95197.72;;;;
2021/09/18 01:33:55;;;;;;;5.450001;4.950001;;;;;;;7.43;100;95197.72;;;;
2021/09/18 01:34:56;;;;;;;5.450001;4.950001;;;;;;;7.43;100;95197.72;;;;
2021/09/18 01:35:56;;;;;;;5.450001;4.950001;;;;;;;7.43;100;95197.72;;;;
2021/09/18 01:36:57;;;;;;;5.450001;4.950001;;;;;;;7.43;100;95197.72;;;;
2021/09/18 01:37:57;;;;;;;5.450001;4.950001;;;;;;;7.43;100;95197.72;;;;
2021/09/18 01:38:58;;;;;;;5.450001;4.950001;;;;;;;7.43;100;95197.72;;;;
2021/09/18 01:39:58;;;;;;;5.450001;4.950001;;;;;;;7.43;100;95197.72;;;;
2021/09/18 01:40:59;;;;;;;5.450001;4.950001;;;;;;;7.43;100;95197.72;;;;
2021/09/18 01:42:00;;;;;;;6.05;5.45;;;;;;;7.41;100;95196.59;;;;
2021/09/18 01:43:01;;;;;;;6.05;5.45;;;;;;;7.41;100;95196.59;;;;
2021/09/18 01:44:03;;;;;;;6.05;5.45;;;;;;;7.41;100;95196.59;;;;
2021/09/18 01:45:04;;;;;;;6.05;5.45;;;;;;;7.41;100;95196.59;;;;
2021/09/18 01:46:05;;;;;;;6.05;5.45;;;;;;;7.41;100;95196.59;;;;
2021/09/18 01:47:05;;;;;;;6.05;5.45;;;;;;;7.41;100;95196.59;;;;
2021/09/18 01:48:06;;;;;;;6.05;5.45;;;;;;;7.41;100;95196.59;;;;
2021/09/18 01:49:09;;;;;;;6.05;5.45;;;;;;;7.41;100;95196.59;;;;
2021/09/18 01:50:12;;;;;;;6.05;5.45;;;;;;;7.41;100;95196.59;;;;
2021/09/18 01:51:27;;;;;;;6.05;5.45;;;;;;;7.41;100;95196.59;;;;
2021/09/18 01:52:33;;;;;;;5.85;5.15;;;;;;;7.4;100;95199.1;;;;
2021/09/18 01:53:33;;;;;;;5.85;5.15;;;;;;;7.4;100;95199.1;;;;
2021/09/18 01:54:34;;;;;;;5.85;5.15;;;;;;;7.4;100;95199.1;;;;
2021/09/18 01:55:35;;;;;;;5.85;5.15;;;;;;;7.4;100;95199.1;;;;
2021/09/18 01:56:37;;;;;;;5.85;5.15;;;;;;;7.4;100;95199.1;;;;
2021/09/18 01:57:37;;;;;;;5.85;5.15;;;;;;;7.4;100;95199.1;;;;
2021/09/18 01:58:41;;;;;;;5.85;5.15;;;;;;;7.4;100;95199.1;;;;
2021/09/18 01:59:42;;;;;;;5.85;5.15;;;;;;;7.4;100;95199.1;;;;
2021/09/18 02:00:42;;;;;;;5.85;5.15;;;;;;;7.4;100;95199.1;;;;
2021/09/18 02:01:50;;;;;;;5.85;5.15;;;;;;;7.4;100;95199.1;;;;
2021/09/18 02:02:50;;;;;;;5.85;5.15;;;;;;;7.4;100;95199.1;;;;
2021/09/18 02:03:52;;;;;;;6.199999;5.05;;;;;;;7.39;100;95200.56;;;;
2021/09/18 02:04:52;;;;;;;6.199999;5.05;;;;;;;7.39;100;95200.56;;;;
2021/09/18 02:05:53;;;;;;;6.199999;5.05;;;;;;;7.39;100;95200.56;;;;
2021/09/18 02:06:53;;;;;;;6.199999;5.05;;;;;;;7.39;100;95200.56;;;;
2021/09/18 02:07:54;;;;;;;6.199999;5.05;;;;;;;7.39;100;95200.56;;;;
2021/09/18 02:08:55;;;;;;;6.199999;5.05;;;;;;;7.39;100;95200.56;;;;
2021/09/18 02:09:56;;;;;;;6.199999;5.05;;;;;;;7.39;100;95200.56;;;;
2021/09/18 02:10:56;;;;;;;6.199999;5.05;;;;;;;7.39;100;95200.56;;;;
2021/09/18 02:11:57;;;;;;;6.199999;5.05;;;;;;;7.39;100;95200.56;;;;
2021/09/18 02:12:58;;;;;;;6.199999;5.05;;;;;;;7.39;100;95200.56;;;;
2021/09/18 02:14:00;;;;;;;6.5;4.75;;;;;;;7.34;100;95194.61;;;;
2021/09/18 02:15:01;;;;;;;6.5;4.75;;;;;;;7.34;100;95194.61;;;;
2021/09/18 02:16:01;;;;;;;6.5;4.75;;;;;;;7.34;100;95194.61;;;;
2021/09/18 02:17:02;;;;;;;6.5;4.75;;;;;;;7.34;100;95194.61;;;;
2021/09/18 02:18:03;;;;;;;6.5;4.75;;;;;;;7.34;100;95194.61;;;;
2021/09/18 02:19:04;;;;;;;6.5;4.75;;;;;;;7.34;100;95194.61;;;;
2021/09/18 02:20:05;;;;;;;6.5;4.75;;;;;;;7.34;100;95194.61;;;;
2021/09/18 02:21:08;;;;;;;6.5;4.75;;;;;;;7.34;100;95194.61;;;;
2021/09/18 02:22:09;;;;;;;6.5;4.75;;;;;;;7.34;100;95194.61;;;;
2021/09/18 02:23:09;;;;;;;6.5;4.75;;;;;;;7.34;100;95194.61;;;;
2021/09/18 02:24:12;;;;;;;6.5;4.75;;;;;;;7.34;100;95194.61;;;;
2021/09/18 02:25:13;;;;;;;6.25;5.65;;;;;;;7.29;100;95190.8;;;;
2021/09/18 02:26:14;;;;;;;6.25;5.65;;;;;;;7.29;100;95190.8;;;;
2021/09/18 02:27:15;;;;;;;6.25;5.65;;;;;;;7.29;100;95190.8;;;;
2021/09/18 02:28:16;;;;;;;6.25;5.65;;;;;;;7.29;100;95190.8;;;;
2021/09/18 02:29:16;;;;;;;6.25;5.65;;;;;;;7.29;100;95190.8;;;;
2021/09/18 02:30:17;;;;;;;6.25;5.65;;;;;;;7.29;100;95190.8;;;;
2021/09/18 02:31:20;;;;;;;6.25;5.65;;;;;;;7.29;100;95190.8;;;;
2021/09/18 02:32:21;;;;;;;6.25;5.65;;;;;;;7.29;100;95190.8;;;;
2021/09/18 02:33:21;;;;;;;6.25;5.65;;;;;;;7.29;100;95190.8;;;;
2021/09/18 02:34:22;;;;;;;6.25;5.65;;;;;;;7.29;100;95190.8;;;;
2021/09/18 02:35:22;;;;;;;6.05;5.450001;;;;;;;7.22;100;95183.31;;;;
2021/09/18 02:36:25;;;;;;;6.05;5.450001;;;;;;;7.22;100;95183.31;;;;
2021/09/18 02:37:25;;;;;;;6.05;5.450001;;;;;;;7.22;100;95183.31;;;;
2021/09/18 02:38:26;;;;;;;6.05;5.450001;;;;;;;7.22;100;95183.31;;;;
2021/09/18 02:39:26;;;;;;;6.05;5.450001;;;;;;;7.22;100;95183.31;;;;
2021/09/18 02:40:27;;;;;;;6.05;5.450001;;;;;;;7.22;100;95183.31;;;;
2021/09/18 02:41:28;;;;;;;6.05;5.450001;;;;;;;7.22;100;95183.31;;;;
2021/09/18 02:42:29;;;;;;;6.05;5.450001;;;;;;;7.22;100;95183.31;;;;
2021/09/18 02:43:30;;;;;;;6.05;5.450001;;;;;;;7.22;100;95183.31;;;;
2021/09/18 02:44:30;;;;;;;6.05;5.450001;;;;;;;7.22;100;95183.31;;;;
2021/09/18 02:45:31;;;;;;;6.05;5.450001;;;;;;;7.22;100;95183.31;;;;
2021/09/18 02:46:31;;;;;;;5.65;4.950001;;;;;;;7.17;100;95188.01;;;;
2021/09/18 02:47:32;;;;;;;5.65;4.950001;;;;;;;7.17;100;95188.01;;;;
2021/09/18 02:48:33;;;;;;;5.65;4.950001;;;;;;;7.17;100;95188.01;;;;
2021/09/18 02:49:33;;;;;;;5.65;4.950001;;;;;;;7.17;100;95188.01;;;;
2021/09/18 02:50:33;;;;;;;5.65;4.950001;;;;;;;7.17;100;95188.01;;;;
2021/09/18 02:51:34;;;;;;;5.65;4.950001;;;;;;;7.17;100;95188.01;;;;
2021/09/18 02:52:34;;;;;;;5.65;4.950001;;;;;;;7.17;100;95188.01;;;;
2021/09/18 02:53:35;;;;;;;5.65;4.950001;;;;;;;7.17;100;95188.01;;;;
2021/09/18 02:54:36;;;;;;;5.65;4.950001;;;;;;;7.17;100;95188.01;;;;
2021/09/18 02:55:36;;;;;;;5.65;4.950001;;;;;;;7.17;100;95188.01;;;;
2021/09/18 02:56:37;;;;;;;6.65;5.2;;;;;;;7.06;100;95181.58;;;;
2021/09/18 02:57:37;;;;;;;6.65;5.2;;;;;;;7.06;100;95181.58;;;;
2021/09/18 02:58:39;;;;;;;6.65;5.2;;;;;;;7.06;100;95181.58;;;;
2021/09/18 02:59:39;;;;;;;6.65;5.2;;;;;;;7.06;100;95181.58;;;;
2021/09/18 03:00:40;;;;;;;6.65;5.2;;;;;;;7.06;100;95181.58;;;;
2021/09/18 03:01:40;;;;;;;6.65;5.2;;;;;;;7.06;100;95181.58;;;;
2021/09/18 03:02:40;;;;;;;6.65;5.2;;;;;;;7.06;100;95181.58;;;;
2021/09/18 03:03:41;;;;;;;6.65;5.2;;;;;;;7.06;100;95181.58;;;;
2021/09/18 03:04:42;;;;;;;6.65;5.2;;;;;;;7.06;100;95181.58;;;;
2021/09/18 03:05:42;;;;;;;6.65;5.2;;;;;;;7.06;100;95181.58;;;;
2021/09/18 03:06:43;;;;;;;6.65;5.2;;;;;;;7.06;100;95181.58;;;;
2021/09/18 03:07:43;;;;;;;6.6;5.25;;;;;;;6.98;100;95174.73;;;;
2021/09/18 03:08:43;;;;;;;6.6;5.25;;;;;;;6.98;100;95174.73;;;;
2021/09/18 03:09:44;;;;;;;6.6;5.25;;;;;;;6.98;100;95174.73;;;;
2021/09/18 03:10:44;;;;;;;6.6;5.25;;;;;;;6.98;100;95174.73;;;;
2021/09/18 03:11:45;;;;;;;6.6;5.25;;;;;;;6.98;100;95174.73;;;;
2021/09/18 03:12:46;;;;;;;6.6;5.25;;;;;;;6.98;100;95174.73;;;;
2021/09/18 03:13:46;;;;;;;6.6;5.25;;;;;;;6.98;100;95174.73;;;;
2021/09/18 03:14:47;;;;;;;6.6;5.25;;;;;;;6.98;100;95174.73;;;;
2021/09/18 03:15:47;;;;;;;6.6;5.25;;;;;;;6.98;100;95174.73;;;;
2021/09/18 03:16:47;;;;;;;6.6;5.25;;;;;;;6.98;100;95174.73;;;;
2021/09/18 03:17:48;;;;;;;6.1;4.85;;;;;;;6.93;100;95178.05;;;;
2021/09/18 03:18:49;;;;;;;6.1;4.85;;;;;;;6.93;100;95178.05;;;;
2021/09/18 03:19:51;;;;;;;6.1;4.85;;;;;;;6.93;100;95178.05;;;;
2021/09/18 03:20:52;;;;;;;6.1;4.85;;;;;;;6.93;100;95178.05;;;;
2021/09/18 03:21:52;;;;;;;6.1;4.85;;;;;;;6.93;100;95178.05;;;;
2021/09/18 03:22:53;;;;;;;6.1;4.85;;;;;;;6.93;100;95178.05;;;;
2021/09/18 03:23:53;;;;;;;6.1;4.85;;;;;;;6.93;100;95178.05;;;;
2021/09/18 03:24:53;;;;;;;6.1;4.85;;;;;;;6.93;100;95178.05;;;;
2021/09/18 03:25:54;;;;;;;6.1;4.85;;;;;;;6.93;100;95178.05;;;;
2021/09/18 03:26:55;;;;;;;6.1;4.85;;;;;;;6.93;100;95178.05;;;;
2021/09/18 03:27:56;;;;;;;6.1;4.85;;;;;;;6.93;100;95178.05;;;;
2021/09/18 03:28:56;;;;;;;6.4;4.750001;;;;;;;6.93;100;95174.11;;;;
2021/09/18 03:29:57;;;;;;;6.4;4.750001;;;;;;;6.93;100;95174.11;;;;
2021/09/18 03:30:57;;;;;;;6.4;4.750001;;;;;;;6.93;100;95174.11;;;;
2021/09/18 03:31:58;;;;;;;6.4;4.750001;;;;;;;6.93;100;95174.11;;;;
2021/09/18 03:32:58;;;;;;;6.4;4.750001;;;;;;;6.93;100;95174.11;;;;
2021/09/18 03:33:59;;;;;;;6.4;4.750001;;;;;;;6.93;100;95174.11;;;;
2021/09/18 03:34:59;;;;;;;6.4;4.750001;;;;;;;6.93;100;95174.11;;;;
2021/09/18 03:36:00;;;;;;;6.4;4.750001;;;;;;;6.93;100;95174.11;;;;
2021/09/18 03:37:00;;;;;;;6.4;4.750001;;;;;;;6.93;100;95174.11;;;;
2021/09/18 03:38:01;;;;;;;6.4;4.750001;;;;;;;6.93;100;95174.11;;;;
2021/09/18 03:39:02;;;;;;;6.35;4.6;;;;;;;6.93;100;95173.6;;;;
2021/09/18 03:40:03;;;;;;;6.35;4.6;;;;;;;6.93;100;95173.6;;;;
2021/09/18 03:41:06;;;;;;;6.35;4.6;;;;;;;6.93;100;95173.6;;;;
2021/09/18 03:42:07;;;;;;;6.35;4.6;;;;;;;6.93;100;95173.6;;;;
2021/09/18 03:43:07;;;;;;;6.35;4.6;;;;;;;6.93;100;95173.6;;;;
2021/09/18 03:44:08;;;;;;;6.35;4.6;;;;;;;6.93;100;95173.6;;;;
2021/09/18 03:45:08;;;;;;;6.35;4.6;;;;;;;6.93;100;95173.6;;;;
2021/09/18 03:46:09;;;;;;;6.35;4.6;;;;;;;6.93;100;95173.6;;;;
2021/09/18 03:47:10;;;;;;;6.35;4.6;;;;;;;6.93;100;95173.6;;;;
2021/09/18 03:48:11;;;;;;;6.35;4.6;;;;;;;6.93;100;95173.6;;;;
2021/09/18 03:49:11;;;;;;;6.35;4.6;;;;;;;6.93;100;95173.6;;;;
2021/09/18 03:50:12;;;;;;;8.3;5;;;;;;;6.83;100;95175.95;;;;
2021/09/18 03:51:12;;;;;;;8.3;5;;;;;;;6.83;100;95175.95;;;;
2021/09/18 03:52:13;;;;;;;8.3;5;;;;;;;6.83;100;95175.95;;;;
2021/09/18 03:53:13;;;;;;;8.3;5;;;;;;;6.83;100;95175.95;;;;
2021/09/18 03:54:14;;;;;;;8.3;5;;;;;;;6.83;100;95175.95;;;;
2021/09/18 03:55:14;;;;;;;8.3;5;;;;;;;6.83;100;95175.95;;;;
2021/09/18 03:56:15;;;;;;;8.3;5;;;;;;;6.83;100;95175.95;;;;
2021/09/18 03:57:15;;;;;;;8.3;5;;;;;;;6.83;100;95175.95;;;;
2021/09/18 03:58:16;;;;;;;8.3;5;;;;;;;6.83;100;95175.95;;;;
2021/09/18 03:59:16;;;;;;;8.3;5;;;;;;;6.83;100;95175.95;;;;
2021/09/18 04:00:17;;;;;;;8.3;5;;;;;;;6.83;100;95175.95;;;;
2021/09/18 04:01:18;;;;;;;8.3;5;;;;;;;6.83;100;95175.95;;;;
2021/09/18 04:02:18;;;;;;;8.3;5;;;;;;;6.83;100;95175.95;;;;
2021/09/18 04:03:19;;;;;;;8.3;5;;;;;;;6.83;100;95175.95;;;;
2021/09/18 04:04:19;;;;;;;8.3;5;;;;;;;6.83;100;95175.95;;;;
2021/09/18 04:05:20;;;;;;;8.3;5;;;;;;;6.83;100;95175.95;;;;
2021/09/18 04:06:20;;;;;;;8.3;5;;;;;;;6.83;100;95175.95;;;;
2021/09/18 04:07:21;;;;;;;8.3;5;;;;;;;6.83;100;95175.95;;;;
2021/09/18 04:08:21;;;;;;;8.3;5;;;;;;;6.83;100;95175.95;;;;
2021/09/18 04:09:22;;;;;;;8.3;5;;;;;;;6.83;100;95175.95;;;;
2021/09/18 04:10:22;;;;;;;8.3;5;;;;;;;6.83;100;95175.95;;;;
2021/09/18 04:11:23;;;;;;;5.400001;4.85;;;;;;;6.68;100;95191.5;;;;
2021/09/18 04:12:24;;;;;;;5.400001;4.85;;;;;;;6.68;100;95191.5;;;;
2021/09/18 04:13:24;;;;;;;5.400001;4.85;;;;;;;6.68;100;95191.5;;;;
2021/09/18 04:14:24;;;;;;;5.400001;4.85;;;;;;;6.68;100;95191.5;;;;
2021/09/18 04:15:25;;;;;;;5.400001;4.85;;;;;;;6.68;100;95191.5;;;;
2021/09/18 04:16:25;;;;;;;5.400001;4.85;;;;;;;6.68;100;95191.5;;;;
2021/09/18 04:17:26;;;;;;;5.400001;4.85;;;;;;;6.68;100;95191.5;;;;
2021/09/18 04:18:26;;;;;;;5.400001;4.85;;;;;;;6.68;100;95191.5;;;;
2021/09/18 04:19:27;;;;;;;5.400001;4.85;;;;;;;6.68;100;95191.5;;;;
2021/09/18 04:20:27;;;;;;;5.400001;4.85;;;;;;;6.68;100;95191.5;;;;
2021/09/18 04:21:28;;;;;;;5.400001;4.85;;;;;;;6.68;100;95191.5;;;;
2021/09/18 04:22:29;;;;;;;4.900001;4.35;;;;;;;6.61;100;95184;;;;
2021/09/18 04:23:32;;;;;;;4.900001;4.35;;;;;;;6.61;100;95184;;;;
2021/09/18 04:24:33;;;;;;;4.900001;4.35;;;;;;;6.61;100;95184;;;;
2021/09/18 04:25:33;;;;;;;4.900001;4.35;;;;;;;6.61;100;95184;;;;
2021/09/18 04:26:34;;;;;;;4.900001;4.35;;;;;;;6.61;100;95184;;;;
2021/09/18 04:27:35;;;;;;;4.900001;4.35;;;;;;;6.61;100;95184;;;;
2021/09/18 04:28:35;;;;;;;4.900001;4.35;;;;;;;6.61;100;95184;;;;
2021/09/18 04:29:36;;;;;;;4.900001;4.35;;;;;;;6.61;100;95184;;;;
2021/09/18 04:30:36;;;;;;;4.900001;4.35;;;;;;;6.61;100;95184;;;;
2021/09/18 04:31:37;;;;;;;4.900001;4.35;;;;;;;6.61;100;95184;;;;
2021/09/18 04:32:37;;;;;;;4.849999;4.349999;;;;;;;6.57;100;95193.09;;;;
2021/09/18 04:33:38;;;;;;;4.849999;4.349999;;;;;;;6.57;100;95193.09;;;;
2021/09/18 04:34:38;;;;;;;4.849999;4.349999;;;;;;;6.57;100;95193.09;;;;
2021/09/18 04:35:39;;;;;;;4.849999;4.349999;;;;;;;6.57;100;95193.09;;;;
2021/09/18 04:36:39;;;;;;;4.849999;4.349999;;;;;;;6.57;100;95193.09;;;;
2021/09/18 04:37:40;;;;;;;4.849999;4.349999;;;;;;;6.57;100;95193.09;;;;
2021/09/18 04:38:40;;;;;;;4.849999;4.349999;;;;;;;6.57;100;95193.09;;;;
2021/09/18 04:39:41;;;;;;;4.849999;4.349999;;;;;;;6.57;100;95193.09;;;;
2021/09/18 04:40:41;;;;;;;4.849999;4.349999;;;;;;;6.57;100;95193.09;;;;
2021/09/18 04:41:42;;;;;;;4.849999;4.349999;;;;;;;6.57;100;95193.09;;;;
2021/09/18 04:42:42;;;;;;;4.849999;4.349999;;;;;;;6.57;100;95193.09;;;;
2021/09/18 04:43:43;;;;;;;5.45;4.699999;;;;;;;6.61;100;95192.47;;;;
2021/09/18 04:44:43;;;;;;;5.45;4.699999;;;;;;;6.61;100;95192.47;;;;
2021/09/18 04:45:44;;;;;;;5.45;4.699999;;;;;;;6.61;100;95192.47;;;;
2021/09/18 04:46:45;;;;;;;5.45;4.699999;;;;;;;6.61;100;95192.47;;;;
2021/09/18 04:47:45;;;;;;;5.45;4.699999;;;;;;;6.61;100;95192.47;;;;
2021/09/18 04:48:46;;;;;;;5.45;4.699999;;;;;;;6.61;100;95192.47;;;;
2021/09/18 04:49:46;;;;;;;5.45;4.699999;;;;;;;6.61;100;95192.47;;;;
2021/09/18 04:50:47;;;;;;;5.45;4.699999;;;;;;;6.61;100;95192.47;;;;
2021/09/18 04:51:48;;;;;;;5.45;4.699999;;;;;;;6.61;100;95192.47;;;;
2021/09/18 04:52:48;;;;;;;5.45;4.699999;;;;;;;6.61;100;95192.47;;;;
2021/09/18 04:53:49;;;;;;;5.45;4.699999;;;;;;;6.61;100;95192.47;;;;
2021/09/18 04:54:49;;;;;;;5.45;4.699999;;;;;;;6.61;100;95192.47;;;;
2021/09/18 04:55:50;;;;;;;5.45;4.699999;;;;;;;6.61;100;95192.47;;;;
2021/09/18 04:56:50;;;;;;;5.45;4.699999;;;;;;;6.61;100;95192.47;;;;
2021/09/18 04:57:51;;;;;;;5.45;4.699999;;;;;;;6.61;100;95192.47;;;;
2021/09/18 04:58:51;;;;;;;5.45;4.699999;;;;;;;6.61;100;95192.47;;;;
2021/09/18 04:59:51;;;;;;;5.45;4.699999;;;;;;;6.61;100;95192.47;;;;
2021/09/18 05:00:52;;;;;;;5.45;4.699999;;;;;;;6.61;100;95192.47;;;;
2021/09/18 05:01:52;;;;;;;5.45;4.699999;;;;;;;6.61;100;95192.47;;;;
2021/09/18 05:02:53;;;;;;;5.45;4.699999;;;;;;;6.61;100;95192.47;;;;
2021/09/18 05:03:53;;;;;;;5.45;4.699999;;;;;;;6.61;100;95192.47;;;;
2021/09/18 05:04:54;;;;;;;5.849999;4.849999;;;;;;;6.63;100;95202.47;;;;
2021/09/18 05:05:54;;;;;;;5.849999;4.849999;;;;;;;6.63;100;95202.47;;;;
2021/09/18 05:06:55;;;;;;;5.849999;4.849999;;;;;;;6.63;100;95202.47;;;;
2021/09/18 05:07:55;;;;;;;5.849999;4.849999;;;;;;;6.63;100;95202.47;;;;
2021/09/18 05:08:56;;;;;;;5.849999;4.849999;;;;;;;6.63;100;95202.47;;;;
2021/09/18 05:09:57;;;;;;;5.849999;4.849999;;;;;;;6.63;100;95202.47;;;;
2021/09/18 05:10:57;;;;;;;5.849999;4.849999;;;;;;;6.63;100;95202.47;;;;
2021/09/18 05:11:58;;;;;;;5.849999;4.849999;;;;;;;6.63;100;95202.47;;;;
2021/09/18 05:12:58;;;;;;;5.849999;4.849999;;;;;;;6.63;100;95202.47;;;;
2021/09/18 05:13:59;;;;;;;5.849999;4.849999;;;;;;;6.63;100;95202.47;;;;
2021/09/18 05:15:00;;;;;;;7;5.150001;;;;;;;6.71;100;95215.2;;;;
2021/09/18 05:16:00;;;;;;;7;5.150001;;;;;;;6.71;100;95215.2;;;;
2021/09/18 05:17:00;;;;;;;7;5.150001;;;;;;;6.71;100;95215.2;;;;
2021/09/18 05:18:01;;;;;;;7;5.150001;;;;;;;6.71;100;95215.2;;;;
2021/09/18 05:19:02;;;;;;;7;5.150001;;;;;;;6.71;100;95215.2;;;;
2021/09/18 05:20:02;;;;;;;7;5.150001;;;;;;;6.71;100;95215.2;;;;
2021/09/18 05:21:04;;;;;;;7;5.150001;;;;;;;6.71;100;95215.2;;;;
2021/09/18 05:22:05;;;;;;;7;5.150001;;;;;;;6.71;100;95215.2;;;;
2021/09/18 05:23:05;;;;;;;7;5.150001;;;;;;;6.71;100;95215.2;;;;
2021/09/18 05:24:06;;;;;;;7;5.150001;;;;;;;6.71;100;95215.2;;;;
2021/09/18 05:25:06;;;;;;;7;5.150001;;;;;;;6.71;100;95215.2;;;;
2021/09/18 05:26:08;;;;;;;7;5.150001;;;;;;;6.71;100;95215.2;;;;
2021/09/18 05:27:08;;;;;;;7;5.150001;;;;;;;6.71;100;95215.2;;;;
2021/09/18 05:28:09;;;;;;;7;5.150001;;;;;;;6.71;100;95215.2;;;;
2021/09/18 05:29:09;;;;;;;7;5.150001;;;;;;;6.71;100;95215.2;;;;
2021/09/18 05:30:10;;;;;;;7;5.150001;;;;;;;6.71;100;95215.2;;;;
2021/09/18 05:31:12;;;;;;;7;5.150001;;;;;;;6.71;100;95215.2;;;;
2021/09/18 05:32:12;;;;;;;7;5.150001;;;;;;;6.71;100;95215.2;;;;
2021/09/18 05:33:13;;;;;;;7;5.150001;;;;;;;6.71;100;95215.2;;;;
2021/09/18 05:34:14;;;;;;;7;5.150001;;;;;;;6.71;100;95215.2;;;;
2021/09/18 05:35:14;;;;;;;7;5.150001;;;;;;;6.71;100;95215.2;;;;
2021/09/18 05:36:15;;;;;;;7;5.150001;;;;;;;6.71;100;95215.2;;;;
2021/09/18 05:37:15;;;;;;;6.4;5.699999;;;;;;;6.95;100;95208.28;;;;
2021/09/18 05:38:16;;;;;;;6.4;5.699999;;;;;;;6.95;100;95208.28;;;;
2021/09/18 05:39:17;;;;;;;6.4;5.699999;;;;;;;6.95;100;95208.28;;;;
2021/09/18 05:40:18;;;;;;;6.4;5.699999;;;;;;;6.95;100;95208.28;;;;
2021/09/18 05:41:18;;;;;;;6.4;5.699999;;;;;;;6.95;100;95208.28;;;;
2021/09/18 05:42:19;;;;;;;6.4;5.699999;;;;;;;6.95;100;95208.28;;;;
2021/09/18 05:43:19;;;;;;;6.4;5.699999;;;;;;;6.95;100;95208.28;;;;
2021/09/18 05:44:20;;;;;;;6.4;5.699999;;;;;;;6.95;100;95208.28;;;;
2021/09/18 05:45:20;;;;;;;6.4;5.699999;;;;;;;6.95;100;95208.28;;;;
2021/09/18 05:46:21;;;;;;;6.4;5.699999;;;;;;;6.95;100;95208.28;;;;
2021/09/18 05:47:21;;;;;;;7.9;5.55;;;;;;;7.15;100;95221.48;;;;
2021/09/18 05:48:22;;;;;;;7.9;5.55;;;;;;;7.15;100;95221.48;;;;
2021/09/18 05:49:22;;;;;;;7.9;5.55;;;;;;;7.15;100;95221.48;;;;
2021/09/18 05:50:24;;;;;;;7.9;5.55;;;;;;;7.15;100;95221.48;;;;
2021/09/18 05:51:24;;;;;;;7.9;5.55;;;;;;;7.15;100;95221.48;;;;
2021/09/18 05:52:25;;;;;;;7.9;5.55;;;;;;;7.15;100;95221.48;;;;
2021/09/18 05:53:25;;;;;;;7.9;5.55;;;;;;;7.15;100;95221.48;;;;
2021/09/18 05:54:27;;;;;;;7.9;5.55;;;;;;;7.15;100;95221.48;;;;
2021/09/18 05:55:27;;;;;;;7.9;5.55;;;;;;;7.15;100;95221.48;;;;
2021/09/18 05:56:28;;;;;;;7.9;5.55;;;;;;;7.15;100;95221.48;;;;
2021/09/18 05:57:28;;;;;;;7.9;5.55;;;;;;;7.15;100;95221.48;;;;
2021/09/18 05:58:29;;;;;;;7.2;6.3;;;;;;;7.42;100;95222.02;;;;
2021/09/18 05:59:29;;;;;;;7.2;6.3;;;;;;;7.42;100;95222.02;;;;
2021/09/18 06:00:30;;;;;;;7.2;6.3;;;;;;;7.42;100;95222.02;;;;
2021/09/18 06:01:30;;;;;;;7.2;6.3;;;;;;;7.42;100;95222.02;;;;
2021/09/18 06:02:31;;;;;;;7.2;6.3;;;;;;;7.42;100;95222.02;;;;
2021/09/18 06:03:31;;;;;;;7.2;6.3;;;;;;;7.42;100;95222.02;;;;
2021/09/18 06:04:32;;;;;;;7.2;6.3;;;;;;;7.42;100;95222.02;;;;
2021/09/18 06:05:32;;;;;;;7.2;6.3;;;;;;;7.42;100;95222.02;;;;
2021/09/18 06:06:33;;;;;;;7.2;6.3;;;;;;;7.42;100;95222.02;;;;
2021/09/18 06:07:33;;;;;;;7.2;6.3;;;;;;;7.42;100;95222.02;;;;
2021/09/18 06:08:34;;;;;;;8.349998;6.45;;;;;;;7.81;100;95235.64;;;;
2021/09/18 06:09:34;;;;;;;8.349998;6.45;;;;;;;7.81;100;95235.64;;;;